Time,TemperatureF,DewpointF,PressureIn,WindDirection,WindDirectionDegrees,WindSpeedMPH,WindSpeedGustMPH,Humidity,HourlyPrecipIn,Conditions,Clouds,dailyrainin,SoftwareType,DateUTC
2013-02-12 08:02:00,41.0,35.0,29.91,WNW,295,0.0,-999.0,79,-99.99,,,-99.99,,2013-02-12 13:02:00,
2013-02-12 08:11:00,41.0,36.0,29.92,WNW,295,0.0,-999.0,81,-99.99,,,-99.99,,2013-02-12 13:11:00,
2013-02-12 08:22:00,41.0,36.0,29.92,WNW,295,0.0,-999.0,81,-99.99,,,-99.99,,2013-02-12 13:22:00,
2013-02-12 08:32:00,42.0,36.0,29.92,WNW,296,0.0,-999.0,79,-99.99,,,-99.99,,2013-02-12 13:32:00,
2013-02-12 08:52:00,43.0,34.0,29.92,NW,311,1.0,-999.0,71,-99.99,,,-99.99,,2013-02-12 13:52:00,
2013-02-12 09:01:00,44.0,36.0,29.93,WNW,300,0.0,-999.0,73,-99.99,,,-99.99,,2013-02-12 14:01:00,
2013-02-12 09:12:00,44.0,36.0,29.93,WNW,300,0.0,-999.0,73,-99.99,,,-99.99,,2013-02-12 14:12:00,
2013-02-12 09:22:00,47.0,37.0,29.93,NW,310,1.0,-999.0,67,-99.99,,,-99.99,,2013-02-12 14:22:00,
2013-02-12 09:32:00,51.0,37.0,29.93,SW,222,1.0,-999.0,58,-99.99,,,-99.99,,2013-02-12 14:32:00,
2013-02-12 09:52:00,52.0,36.0,29.93,NNW,343,1.0,-999.0,55,-99.99,,,-99.99,,2013-02-12 14:52:00,
2013-02-12 10:02:00,53.0,37.0,29.93,WNW,300,2.0,-999.0,55,-99.99,,,-99.99,,2013-02-12 15:02:00,
2013-02-12 10:11:00,53.0,36.0,29.94,West,271,3.0,-999.0,52,-99.99,,,-99.99,,2013-02-12 15:11:00,
2013-02-12 10:21:00,53.0,36.0,29.94,West,271,3.0,-999.0,52,-99.99,,,-99.99,,2013-02-12 15:21:00,
2013-02-12 10:32:00,53.0,35.0,29.95,WNW,300,4.0,-999.0,50,-99.99,,,-99.99,,2013-02-12 15:32:00,
2013-02-12 10:42:00,53.0,35.0,29.95,WNW,300,4.0,-999.0,50,-99.99,,,-99.99,,2013-02-12 15:42:00,
2013-02-12 10:52:00,53.0,34.0,29.96,WSW,248,4.0,-999.0,48,-99.99,,,-99.99,,2013-02-12 15:52:00,
2013-02-12 11:01:00,53.0,34.0,29.96,WNW,289,5.0,-999.0,48,-99.99,,,-99.99,,2013-02-12 16:01:00,
2013-02-12 11:22:00,55.0,35.0,29.96,NW,321,3.0,-999.0,46,-99.99,,,-99.99,,2013-02-12 16:22:00,
2013-02-12 11:32:00,54.0,33.0,29.96,WNW,294,4.0,-999.0,45,-99.99,,,-99.99,,2013-02-12 16:32:00,
2013-02-12 11:42:00,54.0,33.0,29.96,WNW,294,4.0,-999.0,45,-99.99,,,-99.99,,2013-02-12 16:42:00,
2013-02-12 11:52:00,55.0,34.0,29.96,North,360,2.0,-999.0,45,-99.99,,,-99.99,,2013-02-12 16:52:00,
2013-02-12 12:01:00,57.0,35.0,29.96,WSW,246,2.0,-999.0,44,-99.99,,,-99.99,,2013-02-12 17:01:00,
2013-02-12 12:21:00,58.0,36.0,29.95,North,349,2.0,-999.0,43,-99.99,,,-99.99,,2013-02-12 17:21:00,
2013-02-12 12:32:00,57.0,35.0,29.94,NNW,333,4.0,-999.0,43,-99.99,,,-99.99,,2013-02-12 17:32:00,
2013-02-12 12:52:00,57.0,36.0,29.93,NW,326,3.0,-999.0,45,-99.99,,,-99.99,,2013-02-12 17:52:00,
2013-02-12 13:02:00,57.0,35.0,29.93,NW,309,3.0,-999.0,43,-99.99,,,-99.99,,2013-02-12 18:02:00,
2013-02-12 13:12:00,58.0,34.0,29.93,WNW,298,3.0,-999.0,40,-99.99,,,-99.99,,2013-02-12 18:12:00,
2013-02-12 13:23:00,58.0,34.0,29.93,WNW,298,3.0,-999.0,40,-99.99,,,-99.99,,2013-02-12 18:23:00,
2013-02-12 13:32:00,58.0,34.0,29.92,NW,311,3.0,-999.0,41,-99.99,,,-99.99,,2013-02-12 18:32:00,
2013-02-12 13:51:00,58.0,34.0,29.91,West,280,2.0,-999.0,40,-99.99,,,-99.99,,2013-02-12 18:51:00,
2013-02-12 14:02:00,58.0,34.0,29.90,North,349,3.0,-999.0,41,-99.99,,,-99.99,,2013-02-12 19:02:00,
2013-02-12 14:11:00,58.0,34.0,29.90,North,349,3.0,-999.0,41,-99.99,,,-99.99,,2013-02-12 19:11:00,
2013-02-12 14:21:00,58.0,35.0,29.89,NNW,327,3.0,-999.0,42,-99.99,,,-99.99,,2013-02-12 19:21:00,
2013-02-12 14:32:00,57.0,34.0,29.88,North,360,2.0,-999.0,41,-99.99,,,-99.99,,2013-02-12 19:32:00,
2013-02-12 14:42:00,56.0,34.0,29.89,North,355,2.0,-999.0,43,-99.99,,,-99.99,,2013-02-12 19:42:00,
2013-02-12 14:51:00,56.0,34.0,29.89,North,355,2.0,-999.0,43,-99.99,,,-99.99,,2013-02-12 19:51:00,
2013-02-12 15:01:00,55.0,33.0,29.87,NW,323,1.0,-999.0,44,-99.99,,,-99.99,,2013-02-12 20:01:00,
2013-02-12 15:11:00,55.0,33.0,29.87,NW,323,1.0,-999.0,44,-99.99,,,-99.99,,2013-02-12 20:11:00,
2013-02-12 15:21:00,54.0,34.0,29.83,WNW,299,2.0,-999.0,46,-99.99,,,-99.99,,2013-02-12 20:21:00,
2013-02-12 15:32:00,54.0,34.0,29.83,WNW,302,1.0,-999.0,46,-99.99,,,-99.99,,2013-02-12 20:32:00,
2013-02-12 15:41:00,54.0,34.0,29.83,WNW,302,1.0,-999.0,46,-99.99,,,-99.99,,2013-02-12 20:41:00,
2013-02-12 15:52:00,55.0,34.0,29.86,NW,319,1.0,-999.0,45,-99.99,,,-99.99,,2013-02-12 20:52:00,
2013-02-12 16:02:00,55.0,33.0,29.88,West,262,1.0,-999.0,44,-99.99,,,-99.99,,2013-02-12 21:02:00,
2013-02-12 16:11:00,55.0,33.0,29.88,West,262,1.0,-999.0,44,-99.99,,,-99.99,,2013-02-12 21:11:00,
2013-02-12 16:21:00,55.0,34.0,29.90,West,259,1.0,-999.0,45,-99.99,,,-99.99,,2013-02-12 21:21:00,
2013-02-12 16:32:00,54.0,34.0,29.90,NW,308,1.0,-999.0,46,-99.99,,,-99.99,,2013-02-12 21:32:00,
2013-02-12 16:42:00,53.0,33.0,29.89,North,360,0.0,-999.0,47,-99.99,,,-99.99,,2013-02-12 21:42:00,
2013-02-12 16:51:00,53.0,33.0,29.89,North,360,0.0,-999.0,47,-99.99,,,-99.99,,2013-02-12 21:51:00,
2013-02-12 17:01:00,53.0,33.0,29.89,SW,230,0.0,-999.0,46,-99.99,,,-99.99,,2013-02-12 22:01:00,
2013-02-12 17:12:00,53.0,33.0,29.89,SW,230,0.0,-999.0,46,-99.99,,,-99.99,,2013-02-12 22:12:00,
2013-02-12 17:21:00,53.0,35.0,29.89,SW,230,0.0,-999.0,50,-99.99,,,-99.99,,2013-02-12 22:21:00,
2013-02-12 17:32:00,52.0,34.0,29.89,SW,230,0.0,-999.0,50,-99.99,,,-99.99,,2013-02-12 22:32:00,
2013-02-12 17:42:00,52.0,34.0,29.89,SW,230,0.0,-999.0,50,-99.99,,,-99.99,,2013-02-12 22:42:00,
2013-02-12 17:51:00,51.0,34.0,29.90,SW,230,0.0,-999.0,51,-99.99,,,-99.99,,2013-02-12 22:51:00,
2013-02-12 18:01:00,49.0,34.0,29.91,SW,230,0.0,-999.0,55,-99.99,,,-99.99,,2013-02-12 23:01:00,
2013-02-12 18:11:00,48.0,33.0,29.92,SE,144,0.0,-999.0,55,-99.99,,,-99.99,,2013-02-12 23:11:00,
2013-02-12 18:21:00,48.0,33.0,29.92,SE,144,0.0,-999.0,55,-99.99,,,-99.99,,2013-02-12 23:21:00,
2013-02-12 18:32:00,48.0,33.0,29.93,SE,144,0.0,-999.0,56,-99.99,,,-99.99,,2013-02-12 23:32:00,
2013-02-12 18:42:00,48.0,33.0,29.93,SE,144,0.0,-999.0,56,-99.99,,,-99.99,,2013-02-12 23:42:00,
2013-02-12 18:52:00,46.0,32.0,29.92,SE,144,0.0,-999.0,59,-99.99,,,-99.99,,2013-02-12 23:52:00,
2013-02-12 19:02:00,45.0,32.0,29.92,SE,144,0.0,-999.0,61,-99.99,,,-99.99,,2013-02-13 00:02:00,
2013-02-12 19:11:00,45.0,32.0,29.92,SE,144,0.0,-999.0,61,-99.99,,,-99.99,,2013-02-13 00:11:00,
2013-02-12 19:21:00,44.0,32.0,29.94,SE,144,0.0,-999.0,62,-99.99,,,-99.99,,2013-02-13 00:21:00,
2013-02-12 19:32:00,43.0,32.0,29.93,SE,144,0.0,-999.0,64,-99.99,,,-99.99,,2013-02-13 00:32:00,
2013-02-12 19:42:00,43.0,32.0,29.93,SE,144,0.0,-999.0,64,-99.99,,,-99.99,,2013-02-13 00:42:00,
2013-02-12 19:52:00,43.0,33.0,29.93,SE,144,0.0,-999.0,68,-99.99,,,-99.99,,2013-02-13 00:52:00,
2013-02-12 20:01:00,42.0,33.0,29.92,SE,144,0.0,-999.0,71,-99.99,,,-99.99,,2013-02-13 01:01:00,
2013-02-12 20:11:00,42.0,33.0,29.92,SE,144,0.0,-999.0,71,-99.99,,,-99.99,,2013-02-13 01:11:00,
2013-02-12 20:21:00,41.0,33.0,29.92,SE,144,0.0,-999.0,74,-99.99,,,-99.99,,2013-02-13 01:21:00,
2013-02-12 20:32:00,40.0,32.0,29.92,NNE,24,0.0,-999.0,73,-99.99,,,-99.99,,2013-02-13 01:32:00,
2013-02-12 20:42:00,40.0,32.0,29.92,NNE,24,0.0,-999.0,73,-99.99,,,-99.99,,2013-02-13 01:42:00,
2013-02-12 20:52:00,41.0,33.0,29.92,North,355,0.0,-999.0,73,-99.99,,,-99.99,,2013-02-13 01:52:00,
2013-02-12 21:01:00,40.0,32.0,29.92,North,355,0.0,-999.0,73,-99.99,,,-99.99,,2013-02-13 02:01:00,
2013-02-12 21:11:00,40.0,32.0,29.92,North,355,0.0,-999.0,73,-99.99,,,-99.99,,2013-02-13 02:11:00,
2013-02-12 21:22:00,40.0,32.0,29.92,North,355,0.0,-999.0,74,-99.99,,,-99.99,,2013-02-13 02:22:00,
2013-02-12 21:32:00,39.0,32.0,29.91,North,355,0.0,-999.0,75,-99.99,,,-99.99,,2013-02-13 02:32:00,
2013-02-12 21:42:00,39.0,32.0,29.91,North,355,0.0,-999.0,75,-99.99,,,-99.99,,2013-02-13 02:42:00,
2013-02-12 21:52:00,38.0,31.0,29.92,North,355,0.0,-999.0,76,-99.99,,,-99.99,,2013-02-13 02:52:00,
2013-02-12 22:01:00,38.0,31.0,29.92,North,355,0.0,-999.0,76,-99.99,,,-99.99,,2013-02-13 03:01:00,
2013-02-12 22:11:00,37.0,30.0,29.92,North,355,0.0,-999.0,77,-99.99,,,-99.99,,2013-02-13 03:11:00,
2013-02-12 22:21:00,37.0,30.0,29.92,North,355,0.0,-999.0,77,-99.99,,,-99.99,,2013-02-13 03:21:00,
2013-02-12 22:32:00,37.0,30.0,29.93,North,355,0.0,-999.0,77,-99.99,,,-99.99,,2013-02-13 03:32:00,
2013-02-12 22:42:00,37.0,30.0,29.93,North,355,0.0,-999.0,77,-99.99,,,-99.99,,2013-02-13 03:42:00,
2013-02-12 22:51:00,37.0,31.0,29.93,North,355,0.0,-999.0,78,-99.99,,,-99.99,,2013-02-13 03:51:00,
2013-02-12 23:01:00,37.0,31.0,29.93,North,355,0.0,-999.0,79,-99.99,,,-99.99,,2013-02-13 04:01:00,
2013-02-12 23:11:00,37.0,31.0,29.93,North,355,0.0,-999.0,79,-99.99,,,-99.99,,2013-02-13 04:11:00,
2013-02-12 23:21:00,36.0,30.0,29.93,North,355,0.0,-999.0,79,-99.99,,,-99.99,,2013-02-13 04:21:00,
2013-02-12 23:32:00,36.0,31.0,29.93,North,355,0.0,-999.0,81,-99.99,,,-99.99,,2013-02-13 04:32:00,
2013-02-12 23:42:00,36.0,31.0,29.93,North,355,0.0,-999.0,81,-99.99,,,-99.99,,2013-02-13 04:42:00,
2013-02-12 23:51:00,35.0,30.0,29.93,North,355,0.0,-999.0,83,-99.99,,,-99.99,,2013-02-13 04:51:00,